sensor_id;sensor_type;location;lat;lon;timestamp;temperature;humidity
9448;DHT22;4762;48.128;11.376;2023-03-12T00:01:10;-0.50;99.90
9448;DHT22;4762;48.128;11.376;2023-03-12T00:03:12;-0.60;99.90
9448;DHT22;4762;48.128;11.376;2023-03-12T00:05:14;-0.60;99.90
9448;DHT22;4762;48.128;11.376;2023-03-12T00:07:16;-0.60;99.90
9448;DHT22;4762;48.128;11.376;2023-03-12T00:09:19;-0.60;99.90
9448;DHT22;4762;48.128;11.376;2023-03-12T00:11:21;-0.60;99.90
9448;DHT22;4762;48.128;11.376;2023-03-12T00:13:23;-0.60;99.90
9448;DHT22;4762;48.128;11.376;2023-03-12T00:15:25;-0.60;99.90
9448;DHT22;4762;48.128;11.376;2023-03-12T00:17:28;-0.60;99.90
9448;DHT22;4762;48.128;11.376;2023-03-12T00:19:30;-0.70;99.90
9448;DHT22;4762;48.128;11.376;2023-03-12T00:21:32;-0.70;99.90
9448;DHT22;4762;48.128;11.376;2023-03-12T00:23:35;-0.70;99.90
9448;DHT22;4762;48.128;11.376;2023-03-12T00:25:44;-0.70;99.90
9448;DHT22;4762;48.128;11.376;2023-03-12T00:27:47;-0.80;99.90
9448;DHT22;4762;48.128;11.376;2023-03-12T00:29:49;-0.90;99.90
9448;DHT22;4762;48.128;11.376;2023-03-12T00:31:51;-0.90;99.90
9448;DHT22;4762;48.128;11.376;2023-03-12T00:33:54;-1.00;99.90
9448;DHT22;4762;48.128;11.376;2023-03-12T00:35:58;-1.10;99.90
9448;DHT22;4762;48.128;11.376;2023-03-12T00:37:58;-1.10;99.90
9448;DHT22;4762;48.128;11.376;2023-03-12T00:40:01;-1.20;99.90
9448;DHT22;4762;48.128;11.376;2023-03-12T00:42:03;-1.20;99.90
9448;DHT22;4762;48.128;11.376;2023-03-12T00:44:05;-1.20;99.90
9448;DHT22;4762;48.128;11.376;2023-03-12T00:46:08;-1.20;99.90
9448;DHT22;4762;48.128;11.376;2023-03-12T00:48:11;-1.10;99.90
9448;DHT22;4762;48.128;11.376;2023-03-12T00:50:13;-0.90;99.90
9448;DHT22;4762;48.128;11.376;2023-03-12T00:52:15;-0.80;99.90
9448;DHT22;4762;48.128;11.376;2023-03-12T00:54:17;-0.70;99.90
9448;DHT22;4762;48.128;11.376;2023-03-12T00:56:20;-0.60;99.90
9448;DHT22;4762;48.128;11.376;2023-03-12T00:58:22;-0.60;99.90
9448;DHT22;4762;48.128;11.376;2023-03-12T01:00:24;-0.50;99.90
9448;DHT22;4762;48.128;11.376;2023-03-12T01:02:26;-0.50;99.90
9448;DHT22;4762;48.128;11.376;2023-03-12T01:04:29;-0.60;99.90
9448;DHT22;4762;48.128;11.376;2023-03-12T01:06:31;-0.50;99.90
9448;DHT22;4762;48.128;11.376;2023-03-12T01:08:33;-0.40;99.90
9448;DHT22;4762;48.128;11.376;2023-03-12T01:10:36;-0.30;99.90
9448;DHT22;4762;48.128;11.376;2023-03-12T01:12:38;-0.30;99.90
9448;DHT22;4762;48.128;11.376;2023-03-12T01:14:40;-0.20;99.90
9448;DHT22;4762;48.128;11.376;2023-03-12T01:16:42;-0.20;99.90
9448;DHT22;4762;48.128;11.376;2023-03-12T01:18:44;-0.10;99.90
9448;DHT22;4762;48.128;11.376;2023-03-12T01:20:47;-0.10;99.90
9448;DHT22;4762;48.128;11.376;2023-03-12T01:22:49;0.00;99.90
9448;DHT22;4762;48.128;11.376;2023-03-12T01:24:51;0.10;99.90
9448;DHT22;4762;48.128;11.376;2023-03-12T01:26:54;0.10;99.90
9448;DHT22;4762;48.128;11.376;2023-03-12T01:28:56;0.10;99.90
9448;DHT22;4762;48.128;11.376;2023-03-12T01:31:04;0.20;99.90
9448;DHT22;4762;48.128;11.376;2023-03-12T01:33:00;0.20;99.90
9448;DHT22;4762;48.128;11.376;2023-03-12T01:35:03;0.30;99.90
9448;DHT22;4762;48.128;11.376;2023-03-12T01:37:05;0.30;99.90
9448;DHT22;4762;48.128;11.376;2023-03-12T01:39:07;0.40;99.90
9448;DHT22;4762;48.128;11.376;2023-03-12T01:41:10;0.40;99.90
9448;DHT22;4762;48.128;11.376;2023-03-12T01:43:21;0.40;99.90
9448;DHT22;4762;48.128;11.376;2023-03-12T01:47:30;0.40;99.90
9448;DHT22;4762;48.128;11.376;2023-03-12T01:49:33;0.40;99.90
9448;DHT22;4762;48.128;11.376;2023-03-12T01:51:40;0.40;99.90
9448;DHT22;4762;48.128;11.376;2023-03-12T01:53:42;0.40;99.90
9448;DHT22;4762;48.128;11.376;2023-03-12T01:55:43;0.40;99.90
9448;DHT22;4762;48.128;11.376;2023-03-12T01:57:49;0.30;99.90
9448;DHT22;4762;48.128;11.376;2023-03-12T01:59:51;0.20;99.90
9448;DHT22;4762;48.128;11.376;2023-03-12T02:01:52;0.10;99.90
9448;DHT22;4762;48.128;11.376;2023-03-12T02:03:55;0.10;99.90
9448;DHT22;4762;48.128;11.376;2023-03-12T02:05:59;0.00;99.90
9448;DHT22;4762;48.128;11.376;2023-03-12T02:07:59;-0.10;99.90
9448;DHT22;4762;48.128;11.376;2023-03-12T02:10:02;-0.10;99.90
9448;DHT22;4762;48.128;11.376;2023-03-12T02:12:04;-0.20;99.90
9448;DHT22;4762;48.128;11.376;2023-03-12T02:14:07;-0.20;99.90
9448;DHT22;4762;48.128;11.376;2023-03-12T02:16:09;-0.20;99.90
9448;DHT22;4762;48.128;11.376;2023-03-12T02:18:12;-0.20;99.90
9448;DHT22;4762;48.128;11.376;2023-03-12T02:20:31;-0.30;99.90
9448;DHT22;4762;48.128;11.376;2023-03-12T02:22:29;-0.40;99.90
9448;DHT22;4762;48.128;11.376;2023-03-12T02:24:35;-0.40;99.90
9448;DHT22;4762;48.128;11.376;2023-03-12T02:26:36;-0.50;99.90
9448;DHT22;4762;48.128;11.376;2023-03-12T02:28:39;-0.70;99.90
9448;DHT22;4762;48.128;11.376;2023-03-12T02:30:42;-0.80;99.90
9448;DHT22;4762;48.128;11.376;2023-03-12T02:32:44;-0.70;99.90
9448;DHT22;4762;48.128;11.376;2023-03-12T02:34:46;-0.80;99.90
9448;DHT22;4762;48.128;11.376;2023-03-12T02:36:49;-0.80;99.90
9448;DHT22;4762;48.128;11.376;2023-03-12T02:38:51;-0.80;99.90
9448;DHT22;4762;48.128;11.376;2023-03-12T02:40:53;-0.70;99.90
9448;DHT22;4762;48.128;11.376;2023-03-12T02:42:55;-0.70;99.90
9448;DHT22;4762;48.128;11.376;2023-03-12T02:44:58;-0.70;99.90
9448;DHT22;4762;48.128;11.376;2023-03-12T02:47:00;-0.70;99.90
9448;DHT22;4762;48.128;11.376;2023-03-12T02:49:02;-0.70;99.90
9448;DHT22;4762;48.128;11.376;2023-03-12T02:51:04;-0.60;99.90
9448;DHT22;4762;48.128;11.376;2023-03-12T02:53:07;-0.60;99.90
9448;DHT22;4762;48.128;11.376;2023-03-12T02:55:15;-0.50;99.90
9448;DHT22;4762;48.128;11.376;2023-03-12T02:57:17;-0.50;99.90
9448;DHT22;4762;48.128;11.376;2023-03-12T02:59:20;-0.50;99.90
9448;DHT22;4762;48.128;11.376;2023-03-12T03:01:27;-0.50;99.90
9448;DHT22;4762;48.128;11.376;2023-03-12T03:03:32;-0.50;99.90
9448;DHT22;4762;48.128;11.376;2023-03-12T03:05:35;-0.50;99.90
9448;DHT22;4762;48.128;11.376;2023-03-12T03:07:38;-0.50;99.90
9448;DHT22;4762;48.128;11.376;2023-03-12T03:09:40;-0.50;99.90
9448;DHT22;4762;48.128;11.376;2023-03-12T03:11:43;-0.40;99.90
9448;DHT22;4762;48.128;11.376;2023-03-12T03:13:45;-0.40;99.90
9448;DHT22;4762;48.128;11.376;2023-03-12T03:15:48;-0.40;99.90
9448;DHT22;4762;48.128;11.376;2023-03-12T03:17:50;-0.30;99.90
9448;DHT22;4762;48.128;11.376;2023-03-12T03:19:52;-0.30;99.90
9448;DHT22;4762;48.128;11.376;2023-03-12T03:21:55;-0.30;99.90
9448;DHT22;4762;48.128;11.376;2023-03-12T03:23:57;-0.30;99.90
9448;DHT22;4762;48.128;11.376;2023-03-12T03:25:59;-0.20;99.90
9448;DHT22;4762;48.128;11.376;2023-03-12T03:28:01;-0.30;99.90
9448;DHT22;4762;48.128;11.376;2023-03-12T03:30:04;-0.30;99.90
9448;DHT22;4762;48.128;11.376;2023-03-12T03:32:07;-0.30;99.90
9448;DHT22;4762;48.128;11.376;2023-03-12T03:34:10;-0.30;99.90
9448;DHT22;4762;48.128;11.376;2023-03-12T03:36:12;-0.30;99.90
9448;DHT22;4762;48.128;11.376;2023-03-12T03:38:14;-0.20;99.90
9448;DHT22;4762;48.128;11.376;2023-03-12T03:40:17;-0.20;99.90
9448;DHT22;4762;48.128;11.376;2023-03-12T03:42:19;-0.20;99.90
9448;DHT22;4762;48.128;11.376;2023-03-12T03:44:21;-0.20;99.90
9448;DHT22;4762;48.128;11.376;2023-03-12T03:46:24;-0.20;99.90
9448;DHT22;4762;48.128;11.376;2023-03-12T03:48:26;-0.10;99.90
9448;DHT22;4762;48.128;11.376;2023-03-12T03:50:28;-0.10;99.90
9448;DHT22;4762;48.128;11.376;2023-03-12T03:52:31;-0.10;99.90
9448;DHT22;4762;48.128;11.376;2023-03-12T03:54:37;-0.10;99.90
9448;DHT22;4762;48.128;11.376;2023-03-12T03:56:46;0.00;99.90
9448;DHT22;4762;48.128;11.376;2023-03-12T03:58:55;0.00;99.90
9448;DHT22;4762;48.128;11.376;2023-03-12T04:00:57;0.00;99.90
9448;DHT22;4762;48.128;11.376;2023-03-12T04:02:59;0.00;99.90
9448;DHT22;4762;48.128;11.376;2023-03-12T04:05:01;0.10;99.90
9448;DHT22;4762;48.128;11.376;2023-03-12T04:07:04;0.10;99.90
9448;DHT22;4762;48.128;11.376;2023-03-12T04:09:06;0.10;99.90
9448;DHT22;4762;48.128;11.376;2023-03-12T04:11:10;0.10;99.90
9448;DHT22;4762;48.128;11.376;2023-03-12T04:15:33;0.20;99.90
9448;DHT22;4762;48.128;11.376;2023-03-12T04:17:36;0.20;99.90
9448;DHT22;4762;48.128;11.376;2023-03-12T04:19:38;0.30;99.90
9448;DHT22;4762;48.128;11.376;2023-03-12T04:21:40;0.30;99.90
9448;DHT22;4762;48.128;11.376;2023-03-12T04:23:42;0.30;99.90
9448;DHT22;4762;48.128;11.376;2023-03-12T04:28:00;0.30;99.90
9448;DHT22;4762;48.128;11.376;2023-03-12T04:30:02;0.30;99.90
9448;DHT22;4762;48.128;11.376;2023-03-12T04:32:06;0.40;99.90
9448;DHT22;4762;48.128;11.376;2023-03-12T04:34:08;0.30;99.90
9448;DHT22;4762;48.128;11.376;2023-03-12T04:36:11;0.40;99.90
9448;DHT22;4762;48.128;11.376;2023-03-12T04:38:13;0.40;99.90
9448;DHT22;4762;48.128;11.376;2023-03-12T04:40:15;0.40;99.90
9448;DHT22;4762;48.128;11.376;2023-03-12T04:42:18;0.40;99.90
9448;DHT22;4762;48.128;11.376;2023-03-12T04:44:20;0.40;99.90
9448;DHT22;4762;48.128;11.376;2023-03-12T04:46:23;0.40;99.90
9448;DHT22;4762;48.128;11.376;2023-03-12T04:48:26;0.40;99.90
9448;DHT22;4762;48.128;11.376;2023-03-12T04:50:28;0.40;99.90
9448;DHT22;4762;48.128;11.376;2023-03-12T04:52:30;0.30;99.90
9448;DHT22;4762;48.128;11.376;2023-03-12T04:54:32;0.30;99.90
9448;DHT22;4762;48.128;11.376;2023-03-12T04:56:35;0.30;99.90
9448;DHT22;4762;48.128;11.376;2023-03-12T04:58:37;0.30;99.90
9448;DHT22;4762;48.128;11.376;2023-03-12T05:00:40;0.40;99.90
9448;DHT22;4762;48.128;11.376;2023-03-12T05:02:41;0.30;99.90
9448;DHT22;4762;48.128;11.376;2023-03-12T05:04:44;0.40;99.90
9448;DHT22;4762;48.128;11.376;2023-03-12T05:06:46;0.40;99.90
9448;DHT22;4762;48.128;11.376;2023-03-12T05:08:48;0.40;99.90
9448;DHT22;4762;48.128;11.376;2023-03-12T05:10:50;0.40;99.90
9448;DHT22;4762;48.128;11.376;2023-03-12T05:12:53;0.50;99.90
9448;DHT22;4762;48.128;11.376;2023-03-12T05:14:55;0.50;99.90
9448;DHT22;4762;48.128;11.376;2023-03-12T05:16:58;0.50;99.90
9448;DHT22;4762;48.128;11.376;2023-03-12T05:19:00;0.50;99.90
9448;DHT22;4762;48.128;11.376;2023-03-12T05:21:08;0.50;99.90
9448;DHT22;4762;48.128;11.376;2023-03-12T05:23:09;0.50;99.90
9448;DHT22;4762;48.128;11.376;2023-03-12T05:25:11;0.60;99.90
9448;DHT22;4762;48.128;11.376;2023-03-12T05:27:13;0.50;99.90
9448;DHT22;4762;48.128;11.376;2023-03-12T05:29:15;0.60;99.90
9448;DHT22;4762;48.128;11.376;2023-03-12T05:31:18;0.60;99.90
9448;DHT22;4762;48.128;11.376;2023-03-12T05:33:20;0.60;99.90
9448;DHT22;4762;48.128;11.376;2023-03-12T05:35:22;0.70;99.90
9448;DHT22;4762;48.128;11.376;2023-03-12T05:37:25;0.70;99.90
9448;DHT22;4762;48.128;11.376;2023-03-12T05:39:27;0.80;99.90
9448;DHT22;4762;48.128;11.376;2023-03-12T05:41:29;0.80;99.90
9448;DHT22;4762;48.128;11.376;2023-03-12T05:43:31;0.80;99.90
9448;DHT22;4762;48.128;11.376;2023-03-12T05:45:34;0.90;99.90
9448;DHT22;4762;48.128;11.376;2023-03-12T05:47:36;0.90;99.90
9448;DHT22;4762;48.128;11.376;2023-03-12T05:49:38;1.00;99.90
9448;DHT22;4762;48.128;11.376;2023-03-12T05:51:40;1.00;99.90
9448;DHT22;4762;48.128;11.376;2023-03-12T05:53:43;1.10;99.90
9448;DHT22;4762;48.128;11.376;2023-03-12T05:55:45;1.10;99.90
9448;DHT22;4762;48.128;11.376;2023-03-12T05:57:47;1.10;99.90
9448;DHT22;4762;48.128;11.376;2023-03-12T05:59:49;1.10;99.90
9448;DHT22;4762;48.128;11.376;2023-03-12T06:01:51;1.20;99.90
9448;DHT22;4762;48.128;11.376;2023-03-12T06:03:54;1.20;99.90
9448;DHT22;4762;48.128;11.376;2023-03-12T06:05:56;1.30;99.90
9448;DHT22;4762;48.128;11.376;2023-03-12T06:07:58;1.30;99.90
9448;DHT22;4762;48.128;11.376;2023-03-12T06:10:00;1.40;99.90
9448;DHT22;4762;48.128;11.376;2023-03-12T06:12:03;1.40;99.90
9448;DHT22;4762;48.128;11.376;2023-03-12T06:14:05;1.50;99.90
9448;DHT22;4762;48.128;11.376;2023-03-12T06:16:13;1.50;99.90
9448;DHT22;4762;48.128;11.376;2023-03-12T06:18:13;1.50;99.90
9448;DHT22;4762;48.128;11.376;2023-03-12T06:20:15;1.50;99.90
9448;DHT22;4762;48.128;11.376;2023-03-12T06:22:17;1.60;99.90
9448;DHT22;4762;48.128;11.376;2023-03-12T06:24:20;1.60;99.90
9448;DHT22;4762;48.128;11.376;2023-03-12T06:26:22;1.70;99.90
9448;DHT22;4762;48.128;11.376;2023-03-12T06:28:24;1.80;99.90
9448;DHT22;4762;48.128;11.376;2023-03-12T06:30:26;1.90;99.90
9448;DHT22;4762;48.128;11.376;2023-03-12T06:32:29;2.00;99.90
9448;DHT22;4762;48.128;11.376;2023-03-12T06:34:31;2.20;99.90
9448;DHT22;4762;48.128;11.376;2023-03-12T06:36:33;2.20;99.90
9448;DHT22;4762;48.128;11.376;2023-03-12T06:38:35;2.30;99.90
9448;DHT22;4762;48.128;11.376;2023-03-12T06:40:38;2.30;99.90
9448;DHT22;4762;48.128;11.376;2023-03-12T06:42:40;2.30;99.90
9448;DHT22;4762;48.128;11.376;2023-03-12T06:44:42;2.20;99.90
9448;DHT22;4762;48.128;11.376;2023-03-12T06:46:44;2.20;99.90
9448;DHT22;4762;48.128;11.376;2023-03-12T06:48:47;2.30;99.90
9448;DHT22;4762;48.128;11.376;2023-03-12T06:50:49;2.30;99.90
9448;DHT22;4762;48.128;11.376;2023-03-12T06:52:51;2.30;99.90
9448;DHT22;4762;48.128;11.376;2023-03-12T06:54:53;2.40;99.90
9448;DHT22;4762;48.128;11.376;2023-03-12T06:56:56;2.40;99.90
9448;DHT22;4762;48.128;11.376;2023-03-12T06:58:58;2.40;99.90
9448;DHT22;4762;48.128;11.376;2023-03-12T07:01:00;2.40;99.90
9448;DHT22;4762;48.128;11.376;2023-03-12T07:03:03;2.40;99.90
9448;DHT22;4762;48.128;11.376;2023-03-12T07:05:06;2.40;99.90
9448;DHT22;4762;48.128;11.376;2023-03-12T07:07:08;2.50;99.90
9448;DHT22;4762;48.128;11.376;2023-03-12T07:09:10;2.50;99.90
9448;DHT22;4762;48.128;11.376;2023-03-12T07:11:13;2.50;99.90
9448;DHT22;4762;48.128;11.376;2023-03-12T07:13:15;2.60;99.90
9448;DHT22;4762;48.128;11.376;2023-03-12T07:15:17;2.60;99.90
9448;DHT22;4762;48.128;11.376;2023-03-12T07:17:19;2.70;99.90
9448;DHT22;4762;48.128;11.376;2023-03-12T07:19:22;2.80;99.90
9448;DHT22;4762;48.128;11.376;2023-03-12T07:21:24;2.90;99.90
9448;DHT22;4762;48.128;11.376;2023-03-12T07:23:26;3.00;99.90
9448;DHT22;4762;48.128;11.376;2023-03-12T07:25:29;3.10;99.90
9448;DHT22;4762;48.128;11.376;2023-03-12T07:27:31;3.20;99.90
9448;DHT22;4762;48.128;11.376;2023-03-12T07:29:33;3.30;99.90
9448;DHT22;4762;48.128;11.376;2023-03-12T07:31:35;3.40;99.90
9448;DHT22;4762;48.128;11.376;2023-03-12T07:33:37;3.40;99.90
9448;DHT22;4762;48.128;11.376;2023-03-12T07:35:40;3.40;99.90
9448;DHT22;4762;48.128;11.376;2023-03-12T07:37:42;3.50;99.90
9448;DHT22;4762;48.128;11.376;2023-03-12T07:39:44;3.50;99.90
9448;DHT22;4762;48.128;11.376;2023-03-12T07:41:46;3.60;99.90
9448;DHT22;4762;48.128;11.376;2023-03-12T07:43:48;3.60;99.90
9448;DHT22;4762;48.128;11.376;2023-03-12T07:45:51;3.60;99.90
9448;DHT22;4762;48.128;11.376;2023-03-12T07:47:53;3.80;99.90
9448;DHT22;4762;48.128;11.376;2023-03-12T07:49:55;3.90;99.90
9448;DHT22;4762;48.128;11.376;2023-03-12T07:51:59;3.80;99.90
9448;DHT22;4762;48.128;11.376;2023-03-12T07:54:01;4.00;99.90
9448;DHT22;4762;48.128;11.376;2023-03-12T07:56:03;4.00;99.90
9448;DHT22;4762;48.128;11.376;2023-03-12T07:58:06;4.00;99.90
9448;DHT22;4762;48.128;11.376;2023-03-12T08:00:09;3.80;99.90
9448;DHT22;4762;48.128;11.376;2023-03-12T08:02:11;3.70;99.90
9448;DHT22;4762;48.128;11.376;2023-03-12T08:04:13;3.60;99.90
9448;DHT22;4762;48.128;11.376;2023-03-12T08:06:16;3.50;99.90
9448;DHT22;4762;48.128;11.376;2023-03-12T08:08:19;3.60;99.90
9448;DHT22;4762;48.128;11.376;2023-03-12T08:10:22;3.60;99.90
9448;DHT22;4762;48.128;11.376;2023-03-12T08:12:24;3.70;99.90
9448;DHT22;4762;48.128;11.376;2023-03-12T08:14:26;3.70;99.90
9448;DHT22;4762;48.128;11.376;2023-03-12T08:16:28;3.80;99.90
9448;DHT22;4762;48.128;11.376;2023-03-12T08:18:30;3.90;99.90
9448;DHT22;4762;48.128;11.376;2023-03-12T08:20:33;3.70;99.90
9448;DHT22;4762;48.128;11.376;2023-03-12T08:22:36;3.80;99.90
9448;DHT22;4762;48.128;11.376;2023-03-12T08:24:38;3.90;99.90
9448;DHT22;4762;48.128;11.376;2023-03-12T08:26:40;4.00;99.90
9448;DHT22;4762;48.128;11.376;2023-03-12T08:28:43;4.10;99.90
9448;DHT22;4762;48.128;11.376;2023-03-12T08:30:47;4.00;99.90
9448;DHT22;4762;48.128;11.376;2023-03-12T08:32:49;4.20;99.90
9448;DHT22;4762;48.128;11.376;2023-03-12T08:34:51;4.00;99.90
9448;DHT22;4762;48.128;11.376;2023-03-12T08:36:53;4.00;99.90
9448;DHT22;4762;48.128;11.376;2023-03-12T08:38:56;4.00;99.90
9448;DHT22;4762;48.128;11.376;2023-03-12T08:40:58;4.10;99.90
9448;DHT22;4762;48.128;11.376;2023-03-12T08:43:00;4.20;99.90
9448;DHT22;4762;48.128;11.376;2023-03-12T08:45:03;4.20;99.90
9448;DHT22;4762;48.128;11.376;2023-03-12T08:47:05;4.30;99.90
9448;DHT22;4762;48.128;11.376;2023-03-12T08:49:07;4.20;99.90
9448;DHT22;4762;48.128;11.376;2023-03-12T08:51:09;3.90;99.90
9448;DHT22;4762;48.128;11.376;2023-03-12T08:53:12;3.80;99.90
9448;DHT22;4762;48.128;11.376;2023-03-12T08:55:14;3.80;99.90
9448;DHT22;4762;48.128;11.376;2023-03-12T08:57:16;3.90;99.90
9448;DHT22;4762;48.128;11.376;2023-03-12T08:59:19;4.10;99.90
9448;DHT22;4762;48.128;11.376;2023-03-12T09:01:21;4.20;99.90
9448;DHT22;4762;48.128;11.376;2023-03-12T09:03:24;4.10;99.90
9448;DHT22;4762;48.128;11.376;2023-03-12T09:05:25;4.20;99.90
9448;DHT22;4762;48.128;11.376;2023-03-12T09:07:29;4.20;99.90
9448;DHT22;4762;48.128;11.376;2023-03-12T09:09:31;4.30;99.90
9448;DHT22;4762;48.128;11.376;2023-03-12T09:11:35;4.20;99.90
9448;DHT22;4762;48.128;11.376;2023-03-12T09:13:36;4.20;99.90
9448;DHT22;4762;48.128;11.376;2023-03-12T09:15:38;4.30;99.90
9448;DHT22;4762;48.128;11.376;2023-03-12T09:17:40;4.40;99.90
9448;DHT22;4762;48.128;11.376;2023-03-12T09:19:42;4.20;99.90
9448;DHT22;4762;48.128;11.376;2023-03-12T09:21:45;4.00;99.90
9448;DHT22;4762;48.128;11.376;2023-03-12T09:23:47;4.10;99.90
9448;DHT22;4762;48.128;11.376;2023-03-12T09:25:49;4.00;99.90
9448;DHT22;4762;48.128;11.376;2023-03-12T09:27:52;4.00;99.90
9448;DHT22;4762;48.128;11.376;2023-03-12T09:29:54;3.80;99.90
9448;DHT22;4762;48.128;11.376;2023-03-12T09:31:57;3.70;99.90
9448;DHT22;4762;48.128;11.376;2023-03-12T09:33:58;3.70;99.90
9448;DHT22;4762;48.128;11.376;2023-03-12T09:36:01;3.70;99.90
9448;DHT22;4762;48.128;11.376;2023-03-12T09:38:03;3.50;99.90
9448;DHT22;4762;48.128;11.376;2023-03-12T09:40:06;3.30;99.90
9448;DHT22;4762;48.128;11.376;2023-03-12T09:42:11;3.20;99.90
9448;DHT22;4762;48.128;11.376;2023-03-12T09:44:29;3.30;99.90
9448;DHT22;4762;48.128;11.376;2023-03-12T09:46:31;3.30;99.90
9448;DHT22;4762;48.128;11.376;2023-03-12T09:48:32;3.40;99.90
9448;DHT22;4762;48.128;11.376;2023-03-12T09:50:35;3.40;99.90
9448;DHT22;4762;48.128;11.376;2023-03-12T09:52:44;3.40;99.90
9448;DHT22;4762;48.128;11.376;2023-03-12T09:56:59;3.30;99.90
9448;DHT22;4762;48.128;11.376;2023-03-12T09:59:02;3.30;99.90
9448;DHT22;4762;48.128;11.376;2023-03-12T10:01:25;3.60;99.90
9448;DHT22;4762;48.128;11.376;2023-03-12T10:03:33;3.70;99.90
9448;DHT22;4762;48.128;11.376;2023-03-12T10:06:10;3.60;99.90
9448;DHT22;4762;48.128;11.376;2023-03-12T10:07:57;3.80;99.90
9448;DHT22;4762;48.128;11.376;2023-03-12T10:10:09;3.80;99.90
9448;DHT22;4762;48.128;11.376;2023-03-12T10:12:14;3.60;99.90
9448;DHT22;4762;48.128;11.376;2023-03-12T10:17:07;3.60;99.90
9448;DHT22;4762;48.128;11.376;2023-03-12T10:19:20;3.40;99.90
9448;DHT22;4762;48.128;11.376;2023-03-12T10:21:32;3.20;99.90
9448;DHT22;4762;48.128;11.376;2023-03-12T10:23:43;3.40;99.90
9448;DHT22;4762;48.128;11.376;2023-03-12T10:25:51;3.40;99.90
9448;DHT22;4762;48.128;11.376;2023-03-12T10:27:54;3.50;99.90
9448;DHT22;4762;48.128;11.376;2023-03-12T10:29:55;3.50;99.90
9448;DHT22;4762;48.128;11.376;2023-03-12T10:32:23;3.50;99.90
9448;DHT22;4762;48.128;11.376;2023-03-12T10:34:28;3.70;99.90
9448;DHT22;4762;48.128;11.376;2023-03-12T10:36:28;3.60;99.90
9448;DHT22;4762;48.128;11.376;2023-03-12T10:38:30;3.80;99.90
9448;DHT22;4762;48.128;11.376;2023-03-12T10:40:36;3.80;99.90
9448;DHT22;4762;48.128;11.376;2023-03-12T10:42:40;3.90;99.90
9448;DHT22;4762;48.128;11.376;2023-03-12T10:44:44;3.80;99.90
9448;DHT22;4762;48.128;11.376;2023-03-12T10:47:03;4.00;99.90
9448;DHT22;4762;48.128;11.376;2023-03-12T10:49:24;3.90;99.90
9448;DHT22;4762;48.128;11.376;2023-03-12T10:51:27;3.80;99.90
9448;DHT22;4762;48.128;11.376;2023-03-12T10:53:41;3.90;99.90
9448;DHT22;4762;48.128;11.376;2023-03-12T10:55:43;3.90;99.90
9448;DHT22;4762;48.128;11.376;2023-03-12T10:57:46;4.10;99.90
9448;DHT22;4762;48.128;11.376;2023-03-12T10:59:49;4.20;99.90
9448;DHT22;4762;48.128;11.376;2023-03-12T11:01:52;4.60;99.90
9448;DHT22;4762;48.128;11.376;2023-03-12T11:06:09;4.70;99.90
9448;DHT22;4762;48.128;11.376;2023-03-12T11:08:20;4.90;99.90
9448;DHT22;4762;48.128;11.376;2023-03-12T11:10:23;4.90;99.90
9448;DHT22;4762;48.128;11.376;2023-03-12T11:12:26;4.80;99.90
9448;DHT22;4762;48.128;11.376;2023-03-12T11:14:28;4.80;99.90
9448;DHT22;4762;48.128;11.376;2023-03-12T11:16:30;5.10;99.90
9448;DHT22;4762;48.128;11.376;2023-03-12T11:18:33;5.00;99.90
9448;DHT22;4762;48.128;11.376;2023-03-12T11:20:35;5.40;99.90
9448;DHT22;4762;48.128;11.376;2023-03-12T11:22:37;5.50;99.90
9448;DHT22;4762;48.128;11.376;2023-03-12T11:24:55;5.50;99.90
9448;DHT22;4762;48.128;11.376;2023-03-12T11:27:16;5.70;99.90
9448;DHT22;4762;48.128;11.376;2023-03-12T11:29:31;5.50;99.90
9448;DHT22;4762;48.128;11.376;2023-03-12T11:31:34;5.20;99.90
9448;DHT22;4762;48.128;11.376;2023-03-12T11:33:35;5.10;99.90
9448;DHT22;4762;48.128;11.376;2023-03-12T11:35:48;5.20;99.90
9448;DHT22;4762;48.128;11.376;2023-03-12T11:38:00;5.30;99.90
9448;DHT22;4762;48.128;11.376;2023-03-12T11:42:55;5.30;99.90
9448;DHT22;4762;48.128;11.376;2023-03-12T11:45:00;5.60;99.90
9448;DHT22;4762;48.128;11.376;2023-03-12T11:49:40;5.40;99.90
9448;DHT22;4762;48.128;11.376;2023-03-12T11:51:51;6.00;99.90
9448;DHT22;4762;48.128;11.376;2023-03-12T11:54:05;6.50;99.90
9448;DHT22;4762;48.128;11.376;2023-03-12T11:56:12;6.70;99.90
9448;DHT22;4762;48.128;11.376;2023-03-12T11:58:36;6.50;99.90
9448;DHT22;4762;48.128;11.376;2023-03-12T12:00:53;6.20;99.90
9448;DHT22;4762;48.128;11.376;2023-03-12T12:03:06;5.90;99.90
9448;DHT22;4762;48.128;11.376;2023-03-12T12:06:32;6.20;99.90
9448;DHT22;4762;48.128;11.376;2023-03-12T12:12:20;6.50;99.90
9448;DHT22;4762;48.128;11.376;2023-03-12T12:14:27;6.50;99.90
9448;DHT22;4762;48.128;11.376;2023-03-12T12:18:58;6.50;99.90
9448;DHT22;4762;48.128;11.376;2023-03-12T12:21:07;6.40;99.90
9448;DHT22;4762;48.128;11.376;2023-03-12T12:23:16;6.50;99.90
9448;DHT22;4762;48.128;11.376;2023-03-12T12:25:21;6.60;99.90
9448;DHT22;4762;48.128;11.376;2023-03-12T12:27:24;6.60;99.90
9448;DHT22;4762;48.128;11.376;2023-03-12T12:29:31;6.60;99.90
9448;DHT22;4762;48.128;11.376;2023-03-12T12:31:36;6.70;99.90
9448;DHT22;4762;48.128;11.376;2023-03-12T12:33:46;6.60;99.90
9448;DHT22;4762;48.128;11.376;2023-03-12T12:35:45;6.50;99.90
9448;DHT22;4762;48.128;11.376;2023-03-12T12:37:52;6.60;99.90
9448;DHT22;4762;48.128;11.376;2023-03-12T12:40:04;6.50;99.90
9448;DHT22;4762;48.128;11.376;2023-03-12T12:42:10;6.80;99.90
9448;DHT22;4762;48.128;11.376;2023-03-12T12:44:14;6.80;99.90
9448;DHT22;4762;48.128;11.376;2023-03-12T12:46:17;6.80;99.90
9448;DHT22;4762;48.128;11.376;2023-03-12T12:48:26;6.80;99.90
9448;DHT22;4762;48.128;11.376;2023-03-12T12:50:28;6.80;99.90
9448;DHT22;4762;48.128;11.376;2023-03-12T12:52:28;6.90;99.90
9448;DHT22;4762;48.128;11.376;2023-03-12T12:54:34;7.00;99.90
9448;DHT22;4762;48.128;11.376;2023-03-12T12:56:51;7.00;99.90
9448;DHT22;4762;48.128;11.376;2023-03-12T12:59:00;7.10;99.90
9448;DHT22;4762;48.128;11.376;2023-03-12T13:01:00;7.20;99.90
9448;DHT22;4762;48.128;11.376;2023-03-12T13:03:02;7.40;99.90
9448;DHT22;4762;48.128;11.376;2023-03-12T13:05:22;7.70;99.90
9448;DHT22;4762;48.128;11.376;2023-03-12T13:07:31;8.00;99.90
9448;DHT22;4762;48.128;11.376;2023-03-12T13:09:37;8.10;99.90
9448;DHT22;4762;48.128;11.376;2023-03-12T13:11:39;8.20;99.90
9448;DHT22;4762;48.128;11.376;2023-03-12T13:13:43;8.20;99.90
9448;DHT22;4762;48.128;11.376;2023-03-12T13:15:44;8.30;99.90
9448;DHT22;4762;48.128;11.376;2023-03-12T13:18:07;8.30;99.90
9448;DHT22;4762;48.128;11.376;2023-03-12T13:20:16;8.50;99.90
9448;DHT22;4762;48.128;11.376;2023-03-12T13:24:54;8.70;99.90
9448;DHT22;4762;48.128;11.376;2023-03-12T13:26:59;8.40;99.90
9448;DHT22;4762;48.128;11.376;2023-03-12T13:29:10;8.70;99.90
9448;DHT22;4762;48.128;11.376;2023-03-12T13:33:43;8.90;99.90
9448;DHT22;4762;48.128;11.376;2023-03-12T13:36:01;9.00;99.90
9448;DHT22;4762;48.128;11.376;2023-03-12T13:38:03;9.00;99.90
9448;DHT22;4762;48.128;11.376;2023-03-12T13:40:31;8.90;99.90
9448;DHT22;4762;48.128;11.376;2023-03-12T13:42:34;9.00;99.90
9448;DHT22;4762;48.128;11.376;2023-03-12T13:44:29;9.10;99.90
9448;DHT22;4762;48.128;11.376;2023-03-12T13:46:33;9.10;99.90
9448;DHT22;4762;48.128;11.376;2023-03-12T13:48:35;9.00;99.90
9448;DHT22;4762;48.128;11.376;2023-03-12T13:50:39;9.00;99.90
9448;DHT22;4762;48.128;11.376;2023-03-12T13:52:47;8.90;99.90
9448;DHT22;4762;48.128;11.376;2023-03-12T13:54:58;8.80;99.90
9448;DHT22;4762;48.128;11.376;2023-03-12T13:57:02;8.80;99.90